Forbes Field
KFOE : now visible

Airfield :











YOU CAN JOIN US ON...

 
LOGIN :

Register | Disclaimer

   EN    FR    IT 

 









Legend :    VFR   Marginal VFR   IFR   Intensive IFR   Very Intensive IFR
Visi :
Ceiling :
>= 8 km
>= 3000ft
5 to 8 km
1000 to 3000 ft
1500m to 5 km
500 to 1000 ft
800 to 1500m
200 to 500 ft
< 800m
< 200 ft
Symbols :   Thunderstorms  Fog  Heavy snow  Heavy precipitations  Wind > 20 kt






- Airport Elevation : 1078 ft
- IATA code : FOE


KFOE - Forbes Field

CURRENT METAR :
  • 030653Z AUTO 10003KT 4SM BR OVC004 22/22 A3003 RMK AO2 CIG 002V006 SLP159 T02220217 $

EXPIRED METARs :
  • 030553Z AUTO 12005KT 4SM BR OVC004 22/21 A3002 RMK AO2 SLP156 T02220211 10272 20222 402830206 51005 $
  • 030535Z AUTO 10005KT 5SM BR BKN004 22/21 A3002 RMK AO2 T02220211 $
  • 030453Z AUTO 07004KT 6SM BR FEW005 23/21 A3002 RMK AO2 SLP156 T02280211 $

TAF KFOE
Valid from the 03 at 06:00 until the 04 at 06:00 UTC


030520Z 0306/0406 VRB04KT 5SM BR BKN006
FM031100 VRB03KT 5SM BR OVC003
FM031500 11005KT P6SM BKN010
FM031700 11006KT P6SM SCT040
KZKC FIR / North America



MET'MAP, your aeronautical weather chart ! - Copyright ORBIFLY December 2007 - Disclaimer

ORBIFLY MET'MAP TEAM :

Programming & Development : Alexandra Zaïnal
Original concept : Baudouin d'Aumeries
Technical & hardware support : Manuel Goepfert
Assistance : Marc-Olivier Méhu




SOURCES & CREDITS :

   NOAA       Earth
Advisory